Time;durP1;ratioP1;P1;durP2;ratioP2;P2;SDS_P1;SDS_P2;PMS_P1;PMS_P2;Temp;Humidity;BMP_temperature;BMP_pressure;BME280_temperature;BME280_humidity;BME280_pressure;Samples;Min_cycle;Max_cycle;Signal;HPM_P1;HPM_P2
2022/08/19 00:01:18;;;;;;;10.02;8.30;;;;;;;18.44;100.00;101284.75;5013696;28;20368;-47
2022/08/19 00:03:43;;;;;;;9.00;8.20;;;;;;;18.42;100.00;101284.94;5016152;28;20640;-49
2022/08/19 00:06:09;;;;;;;10.05;8.90;;;;;;;18.32;100.00;101279.09;5016376;28;20040;-47
2022/08/19 00:08:35;;;;;;;11.15;8.50;;;;;;;18.27;100.00;101276.16;5016508;28;20021;-47
2022/08/19 00:11:00;;;;;;;11.57;8.30;;;;;;;18.27;100.00;101289.66;5047874;28;20097;-48
2022/08/19 00:13:28;;;;;;;10.93;8.00;;;;;;;18.28;100.00;101280.53;5016631;28;20032;-49
2022/08/19 00:15:54;;;;;;;10.40;7.57;;;;;;;18.20;100.00;101286.94;5013845;28;20056;-46
2022/08/19 00:18:19;;;;;;;15.05;7.05;;;;;;;18.21;100.00;101295.88;5014680;28;20371;-50
2022/08/19 00:20:44;;;;;;;10.07;7.28;;;;;;;18.18;100.00;101286.31;5016456;28;20187;-49
2022/08/19 00:23:10;;;;;;;11.88;7.43;;;;;;;18.12;100.00;101286.28;5016132;28;20289;-49
2022/08/19 00:25:36;;;;;;;8.45;7.60;;;;;;;18.08;100.00;101286.66;5016273;28;20476;-49
2022/08/19 00:28:01;;;;;;;9.63;8.02;;;;;;;18.03;100.00;101291.00;5015846;28;20036;-45
2022/08/19 00:30:27;;;;;;;10.07;8.52;;;;;;;18.01;100.00;101290.38;5014185;28;20041;-47
2022/08/19 00:32:54;;;;;;;11.00;8.57;;;;;;;17.99;100.00;101282.47;5015836;28;20083;-49
2022/08/19 00:35:20;;;;;;;12.20;9.10;;;;;;;18.05;100.00;101289.75;5013106;28;20456;-49
2022/08/19 00:37:47;;;;;;;10.68;9.60;;;;;;;18.01;100.00;101282.28;5016482;28;20017;-48
2022/08/19 00:40:13;;;;;;;10.57;9.35;;;;;;;17.98;100.00;101285.38;5015562;28;20029;-49
2022/08/19 00:42:39;;;;;;;13.00;9.80;;;;;;;18.00;100.00;101294.09;5016380;28;20021;-49
2022/08/19 00:45:11;;;;;;;10.18;9.10;;;;;;;17.98;100.00;101299.72;5013762;28;20041;-46
2022/08/19 00:47:37;;;;;;;13.48;9.00;;;;;;;17.96;100.00;101299.09;5015992;28;20068;-46
2022/08/19 00:50:03;;;;;;;13.07;9.13;;;;;;;17.89;100.00;101287.41;5014550;28;20045;-49
2022/08/19 00:52:33;;;;;;;10.77;9.10;;;;;;;17.84;100.00;101289.84;5015988;28;20048;-48
2022/08/19 00:55:00;;;;;;;13.60;9.23;;;;;;;17.80;100.00;101286.66;5014565;28;20018;-47
2022/08/19 00:57:38;;;;;;;13.73;9.65;;;;;;;17.86;100.00;101282.38;5015517;28;20420;-50
2022/08/19 01:00:10;;;;;;;12.23;9.90;;;;;;;17.84;100.00;101285.25;5014350;28;20268;-49
2022/08/19 01:02:35;;;;;;;15.27;10.80;;;;;;;17.86;100.00;101283.22;5014140;28;20053;-48
2022/08/19 01:05:06;;;;;;;12.40;10.10;;;;;;;17.88;100.00;101281.16;5015616;28;20037;-49
2022/08/19 01:07:33;;;;;;;14.05;10.98;;;;;;;17.86;100.00;101280.50;5015891;28;20029;-45
2022/08/19 01:09:59;;;;;;;12.52;9.90;;;;;;;17.81;100.00;101284.81;5015394;28;20460;-49
2022/08/19 01:12:25;;;;;;;12.32;9.57;;;;;;;17.78;100.00;101283.34;5015456;28;20079;-48
2022/08/19 01:14:52;;;;;;;12.15;9.77;;;;;;;17.70;100.00;101288.88;5013536;28;20025;-48
2022/08/19 01:17:19;;;;;;;12.90;11.00;;;;;;;17.71;100.00;101295.97;5014380;28;20029;-48
2022/08/19 01:19:46;;;;;;;13.05;10.57;;;;;;;17.70;100.00;101300.56;5015357;28;20555;-46
2022/08/19 01:22:22;;;;;;;14.65;11.18;;;;;;;17.73;100.00;101295.78;5013862;28;20076;-45
2022/08/19 01:24:48;;;;;;;16.40;11.00;;;;;;;17.72;100.00;101294.97;5015271;28;20052;-46
2022/08/19 01:27:13;;;;;;;15.30;11.25;;;;;;;17.65;100.00;101296.75;5015228;28;20492;-46
2022/08/19 01:29:41;;;;;;;14.85;11.25;;;;;;;17.66;100.00;101295.72;5013322;28;20361;-45
2022/08/19 01:32:11;;;;;;;15.57;11.70;;;;;;;17.59;100.00;101289.44;5014099;28;20445;-47
2022/08/19 01:34:37;;;;;;;16.73;12.07;;;;;;;17.51;100.00;101287.72;5014913;28;20025;-48
2022/08/19 01:37:10;;;;;;;15.40;11.70;;;;;;;17.53;100.00;101293.75;5015271;28;20039;-46
2022/08/19 01:39:38;;;;;;;14.05;11.30;;;;;;;17.52;100.00;101294.81;5014911;28;20473;-48
2022/08/19 01:42:04;;;;;;;17.83;13.02;;;;;;;17.51;100.00;101293.97;5013927;28;20096;-46
2022/08/19 01:44:30;;;;;;;20.30;13.63;;;;;;;17.48;100.00;101291.66;5013424;28;20433;-46
2022/08/19 01:46:55;;;;;;;24.27;15.10;;;;;;;17.53;100.00;101289.22;5014188;28;20819;-46
2022/08/19 01:49:23;;;;;;;19.25;13.77;;;;;;;17.52;100.00;101289.41;5013873;28;20025;-47
2022/08/19 01:51:49;;;;;;;22.63;15.27;;;;;;;17.46;100.00;101284.78;5015070;28;20021;-46
2022/08/19 01:54:16;;;;;;;20.58;15.60;;;;;;;17.42;100.00;101284.34;5014477;28;20097;-48
2022/08/19 01:56:41;;;;;;;21.88;15.50;;;;;;;17.29;100.00;101278.81;5014508;28;20531;-47
2022/08/19 01:59:11;;;;;;;19.52;14.77;;;;;;;17.24;100.00;101278.56;5012189;28;20025;-48
2022/08/19 02:01:37;;;;;;;20.75;15.60;;;;;;;17.28;100.00;101274.47;5013811;28;20052;-46
2022/08/19 02:04:02;;;;;;;20.25;14.80;;;;;;;17.32;100.00;101283.84;5014956;28;20018;-48
2022/08/19 02:06:28;;;;;;;21.50;15.07;;;;;;;17.32;100.00;101281.97;5014404;28;20035;-46
2022/08/19 02:08:54;;;;;;;20.77;13.88;;;;;;;17.29;100.00;101285.06;5014523;28;20037;-46
2022/08/19 02:11:23;;;;;;;23.45;14.85;;;;;;;17.32;100.00;101291.94;5014497;28;20391;-47
2022/08/19 02:13:49;;;;;;;19.63;13.80;;;;;;;17.29;100.00;101286.91;5013481;28;20045;-47
2022/08/19 02:16:16;;;;;;;21.40;14.13;;;;;;;17.28;100.00;101298.78;5013335;28;20457;-48
2022/08/19 02:18:42;;;;;;;19.38;14.35;;;;;;;17.27;100.00;101299.78;5014214;28;20021;-46
2022/08/19 02:21:07;;;;;;;25.25;14.52;;;;;;;17.31;100.00;101301.06;5013939;28;20546;-48
2022/08/19 02:23:32;;;;;;;22.25;15.27;;;;;;;17.35;100.00;101296.94;5013667;28;20035;-45
2022/08/19 02:25:58;;;;;;;22.83;15.00;;;;;;;17.34;100.00;101298.81;5015050;28;20033;-48
2022/08/19 02:28:23;;;;;;;19.25;14.40;;;;;;;17.42;100.00;101300.53;5014297;28;20447;-46
2022/08/19 02:30:49;;;;;;;21.17;14.52;;;;;;;17.30;100.00;101294.81;5011566;28;20443;-46
2022/08/19 02:33:14;;;;;;;20.17;14.45;;;;;;;17.33;100.00;101309.81;5014534;28;20024;-46
2022/08/19 02:35:44;;;;;;;21.38;14.80;;;;;;;17.32;100.00;101308.13;5018105;28;20076;-45
2022/08/19 02:38:27;;;;;;;25.63;16.83;;;;;;;17.29;100.00;101305.81;5018400;28;20030;-47
2022/08/19 02:41:00;;;;;;;23.90;15.27;;;;;;;17.28;100.00;101306.88;5018398;28;20112;-45
2022/08/19 02:43:27;;;;;;;23.00;15.10;;;;;;;17.26;100.00;101307.06;5017693;28;20389;-49
2022/08/19 02:45:53;;;;;;;23.13;15.65;;;;;;;17.24;100.00;101305.56;5016227;28;20131;-49
2022/08/19 02:48:20;;;;;;;21.17;15.23;;;;;;;17.20;100.00;101302.41;5017677;28;20404;-45
2022/08/19 02:50:46;;;;;;;21.77;15.80;;;;;;;17.23;100.00;101312.00;5018577;28;20025;-45
2022/08/19 02:53:12;;;;;;;24.83;16.63;;;;;;;17.24;100.00;101313.66;5017502;28;20029;-47
2022/08/19 02:55:46;;;;;;;21.60;15.90;;;;;;;17.24;100.00;101319.06;5017804;28;20628;-49
2022/08/19 02:58:13;;;;;;;24.30;16.08;;;;;;;17.23;100.00;101322.81;5017570;28;20060;-52
2022/08/19 03:00:49;;;;;;;26.95;16.42;;;;;;;17.28;100.00;101325.75;5015862;28;20510;-49
2022/08/19 03:03:15;;;;;;;25.63;15.82;;;;;;;17.29;100.00;101319.31;5017578;28;20044;-46
2022/08/19 03:05:41;;;;;;;21.45;15.38;;;;;;;17.27;100.00;101314.09;5017841;28;20044;-45
2022/08/19 03:08:08;;;;;;;22.42;15.48;;;;;;;17.28;100.00;101310.38;5017543;28;20061;-46
2022/08/19 03:10:40;;;;;;;21.95;15.32;;;;;;;17.29;100.00;101303.97;5017052;28;20056;-45
2022/08/19 03:13:05;;;;;;;22.85;15.40;;;;;;;17.22;100.00;101308.47;5017182;28;20021;-49
2022/08/19 03:15:30;;;;;;;24.90;16.02;;;;;;;17.17;100.00;101304.69;5016226;28;20028;-44
2022/08/19 03:17:55;;;;;;;27.08;16.48;;;;;;;17.15;100.00;101307.56;5018165;28;20026;-45
2022/08/19 03:20:21;;;;;;;27.75;16.77;;;;;;;17.12;100.00;101307.94;5015001;28;20108;-46
2022/08/19 03:22:46;;;;;;;24.85;16.65;;;;;;;17.09;100.00;101313.72;5018126;28;20030;-45
2022/08/19 03:25:11;;;;;;;25.92;16.38;;;;;;;17.07;100.00;101311.22;5016321;28;20018;-45
2022/08/19 03:27:37;;;;;;;26.52;17.27;;;;;;;17.02;100.00;101310.13;5017683;28;20049;-48
2022/08/19 03:30:03;;;;;;;24.27;16.55;;;;;;;17.04;100.00;101313.47;5016070;28;20032;-44
2022/08/19 03:32:28;;;;;;;25.33;16.25;;;;;;;16.97;100.00;101310.69;5017456;28;20628;-48
2022/08/19 03:34:53;;;;;;;23.48;16.60;;;;;;;16.93;100.00;101302.16;5016757;28;20257;-47
2022/08/19 03:37:18;;;;;;;24.67;17.17;;;;;;;16.92;100.00;101299.66;5017326;28;20101;-44
2022/08/19 03:39:44;;;;;;;28.25;17.98;;;;;;;16.92;100.00;101307.75;5017693;28;20029;-46
2022/08/19 03:42:10;;;;;;;24.85;17.05;;;;;;;16.85;100.00;101318.47;5016141;28;20056;-45
2022/08/19 03:44:37;;;;;;;26.20;16.80;;;;;;;16.87;100.00;101326.38;5015088;28;20021;-47
2022/08/19 03:47:03;;;;;;;24.17;17.13;;;;;;;16.85;100.00;101314.94;5016386;28;20086;-46
2022/08/19 03:49:32;;;;;;;24.88;17.48;;;;;;;16.83;100.00;101303.47;5016713;28;20084;-46
2022/08/19 03:52:00;;;;;;;25.58;17.80;;;;;;;16.87;100.00;101299.38;5017091;28;20437;-50
2022/08/19 03:54:27;;;;;;;26.50;17.70;;;;;;;16.89;100.00;101291.97;5016611;28;20052;-44
2022/08/19 03:56:54;;;;;;;24.88;17.20;;;;;;;16.86;100.00;101295.88;5016181;28;20680;-48
2022/08/19 03:59:35;;;;;;;23.63;17.05;;;;;;;16.84;100.00;101300.63;5015607;28;20069;-43
2022/08/19 04:02:05;;;;;;;24.33;16.80;;;;;;;16.81;100.00;101300.16;5016255;28;20049;-47
2022/08/19 04:04:30;;;;;;;22.38;16.83;;;;;;;16.77;100.00;101291.59;5016970;28;20033;-46
2022/08/19 04:06:56;;;;;;;26.42;16.55;;;;;;;16.77;100.00;101295.13;5017227;28;20059;-50
2022/08/19 04:09:21;;;;;;;24.50;16.20;;;;;;;16.78;100.00;101302.19;5014969;28;20061;-45
2022/08/19 04:11:50;;;;;;;26.13;16.88;;;;;;;16.77;100.00;101311.31;5017092;28;20060;-47
2022/08/19 04:14:19;;;;;;;21.52;16.58;;;;;;;16.78;100.00;101307.59;5015373;28;20117;-47
2022/08/19 04:16:46;;;;;;;24.27;17.77;;;;;;;16.78;100.00;101307.59;5016516;28;20049;-45
2022/08/19 04:19:13;;;;;;;27.75;18.58;;;;;;;16.79;100.00;101303.84;5016062;28;20032;-45
2022/08/19 04:21:39;;;;;;;27.85;19.73;;;;;;;16.81;100.00;101294.75;5015938;28;20480;-47
2022/08/19 04:24:04;;;;;;;27.48;18.63;;;;;;;16.77;100.00;101299.69;5013678;28;20049;-45
2022/08/19 04:26:33;;;;;;;25.50;18.83;;;;;;;16.76;100.00;101301.53;5016927;28;20480;-44
2022/08/19 04:29:01;;;;;;;28.25;19.40;;;;;;;16.75;100.00;101297.19;5015476;28;20075;-47
2022/08/19 04:31:29;;;;;;;28.75;19.45;;;;;;;16.77;100.00;101294.28;5015147;28;20296;-47
2022/08/19 04:33:59;;;;;;;27.00;18.98;;;;;;;16.78;100.00;101293.25;5023271;28;20071;-45
2022/08/19 04:36:28;;;;;;;32.03;20.07;;;;;;;16.77;100.00;101294.28;5035621;28;20079;-44
2022/08/19 04:39:04;;;;;;;31.52;19.80;;;;;;;16.79;100.00;101294.94;5035454;28;20071;-46
2022/08/19 04:44:14;;;;;;;29.83;19.42;;;;;;;16.78;100.00;101285.16;5033876;28;20040;-46
2022/08/19 04:46:39;;;;;;;25.15;19.50;;;;;;;16.76;100.00;101292.63;5034465;28;20029;-46
2022/08/19 04:49:06;;;;;;;26.42;19.08;;;;;;;16.77;100.00;101299.69;5034376;28;20356;-46
2022/08/19 04:51:33;;;;;;;28.52;19.17;;;;;;;16.72;100.00;101299.44;5036116;28;20028;-45
2022/08/19 04:53:59;;;;;;;31.38;20.80;;;;;;;16.67;100.00;101316.19;5035670;28;20499;-45
2022/08/19 04:56:26;;;;;;;30.90;21.15;;;;;;;16.61;100.00;101306.13;5035412;28;20025;-48
2022/08/19 04:58:53;;;;;;;30.48;20.38;;;;;;;16.59;100.00;101316.28;5034310;28;20418;-49
2022/08/19 05:01:22;;;;;;;31.80;21.13;;;;;;;16.55;100.00;101310.44;5032650;28;20052;-46
2022/08/19 05:03:48;;;;;;;29.65;21.17;;;;;;;16.54;100.00;101316.00;5033815;28;20037;-49
2022/08/19 05:06:15;;;;;;;35.92;22.23;;;;;;;16.50;100.00;101315.56;5035362;28;20403;-48
2022/08/19 05:08:42;;;;;;;34.60;23.60;;;;;;;16.53;100.00;101319.72;5035506;28;20029;-48
2022/08/19 05:11:32;;;;;;;36.55;23.60;;;;;;;16.49;100.00;101315.75;5034927;28;20063;-47
2022/08/19 05:13:57;;;;;;;37.03;23.70;;;;;;;16.45;100.00;101319.84;5032979;28;20715;-47
2022/08/19 05:16:24;;;;;;;39.15;24.73;;;;;;;16.40;100.00;101315.84;5033954;28;20025;-48
2022/08/19 05:24:20;;;;;;;39.92;25.17;;;;;;;16.43;100.00;101349.69;5014483;28;20416;-49
2022/08/19 05:26:48;;;;;;;40.08;24.63;;;;;;;16.46;100.00;101341.22;5026729;28;20100;-45
2022/08/19 05:29:16;;;;;;;40.22;25.33;;;;;;;16.48;100.00;101347.28;5024703;28;20033;-45
2022/08/19 05:31:42;;;;;;;40.00;26.02;;;;;;;16.47;100.00;101350.16;5014628;28;20487;-46
2022/08/19 05:34:09;;;;;;;42.25;25.67;;;;;;;16.45;100.00;101352.22;5012669;28;20021;-48
2022/08/19 05:36:45;;;;;;;43.95;25.90;;;;;;;16.50;100.00;101347.09;5015446;28;20030;-47
2022/08/19 05:39:15;;;;;;;39.47;25.58;;;;;;;16.47;100.00;101355.53;5015172;28;20124;-49
2022/08/19 05:41:46;;;;;;;45.15;27.35;;;;;;;16.47;100.00;101360.94;5014861;28;20022;-46
2022/08/19 05:44:11;;;;;;;43.40;26.92;;;;;;;16.46;100.00;101360.09;5012791;28;20029;-47
2022/08/19 05:46:38;;;;;;;48.65;26.65;;;;;;;16.48;100.00;101362.59;5013847;28;20052;-47
2022/08/19 05:49:06;;;;;;;44.97;27.52;;;;;;;16.49;100.00;101370.50;5013986;28;20041;-45
2022/08/19 05:51:33;;;;;;;45.63;28.00;;;;;;;16.51;100.00;101368.44;5013786;28;20048;-47
2022/08/19 05:53:59;;;;;;;45.08;28.60;;;;;;;16.53;100.00;101362.88;5014936;28;20037;-46
2022/08/19 05:56:24;;;;;;;54.40;29.02;;;;;;;16.60;100.00;101358.41;5014398;28;20026;-45
2022/08/19 05:58:50;;;;;;;48.85;28.63;;;;;;;16.65;100.00;101358.69;5013550;28;20017;-47
2022/08/19 06:01:17;;;;;;;52.83;28.85;;;;;;;16.63;100.00;101360.72;5013689;28;20536;-47
2022/08/19 06:03:43;;;;;;;54.03;30.55;;;;;;;16.67;100.00;101353.09;5014106;28;20099;-45
2022/08/19 06:06:11;;;;;;;52.15;30.17;;;;;;;16.70;100.00;101358.97;5014237;28;20065;-45
2022/08/19 06:08:37;;;;;;;51.72;30.50;;;;;;;16.73;100.00;101353.19;5045658;28;20032;-47
2022/08/19 06:11:32;;;;;;;50.35;30.00;;;;;;;16.80;100.00;101353.22;5014778;28;20033;-46
2022/08/19 06:14:01;;;;;;;50.88;30.05;;;;;;;16.83;100.00;101344.78;5000031;28;20522;-44
2022/08/19 06:16:27;;;;;;;53.08;29.90;;;;;;;16.87;100.00;101345.25;5013275;28;20037;-46
2022/08/19 06:18:54;;;;;;;51.28;29.67;;;;;;;16.94;100.00;101344.31;5013973;28;20490;-44
2022/08/19 06:21:22;;;;;;;52.67;31.15;;;;;;;16.98;100.00;101327.75;5014239;28;20061;-44
2022/08/19 06:23:48;;;;;;;54.55;30.83;;;;;;;17.02;100.00;101337.94;5014902;28;20021;-48
2022/08/19 06:26:15;;;;;;;52.35;31.83;;;;;;;17.11;100.00;101335.97;5014338;28;20707;-46
2022/08/19 06:28:44;;;;;;;54.63;31.10;;;;;;;17.15;100.00;101332.69;5013073;28;20471;-45
2022/08/19 06:31:10;;;;;;;54.03;30.92;;;;;;;17.22;100.00;101343.53;5013250;28;20025;-46
2022/08/19 06:33:37;;;;;;;55.40;31.73;;;;;;;17.25;100.00;101340.47;5013688;28;20029;-46
2022/08/19 06:36:02;;;;;;;53.28;30.67;;;;;;;17.30;100.00;101332.63;5014486;28;20064;-48
2022/08/19 06:38:28;;;;;;;60.60;32.33;;;;;;;17.33;100.00;101336.81;5012716;28;20037;-46
2022/08/19 06:41:05;;;;;;;55.30;32.00;;;;;;;17.42;100.00;101348.31;5014253;28;20037;-49
2022/08/19 06:43:31;;;;;;;58.25;31.90;;;;;;;17.47;100.00;101346.69;5013526;28;20095;-47
2022/08/19 06:45:56;;;;;;;54.55;30.85;;;;;;;17.56;100.00;101350.09;5012881;28;20087;-46
2022/08/19 06:48:22;;;;;;;53.28;30.58;;;;;;;17.63;100.00;101345.56;5012940;28;20624;-48
2022/08/19 06:50:48;;;;;;;50.85;28.13;;;;;;;17.73;100.00;101342.53;5014260;28;20025;-46
2022/08/19 06:53:13;;;;;;;49.80;28.77;;;;;;;17.80;100.00;101339.88;5027554;28;20028;-47
2022/08/19 06:55:40;;;;;;;56.53;27.95;;;;;;;17.86;100.00;101342.66;5027606;28;20037;-46
2022/08/19 06:58:05;;;;;;;51.17;27.67;;;;;;;17.96;100.00;101346.91;5014194;28;20025;-46
2022/08/19 07:00:31;;;;;;;51.72;28.88;;;;;;;18.03;100.00;101345.91;5012348;28;20056;-46
2022/08/19 07:02:56;;;;;;;58.65;30.15;;;;;;;18.15;100.00;101358.88;5014242;28;20311;-47
2022/08/19 07:05:22;;;;;;;60.88;30.10;;;;;;;18.23;100.00;101356.84;5012639;28;20467;-46
2022/08/19 07:07:47;;;;;;;60.42;30.92;;;;;;;18.24;100.00;101358.50;5014812;28;20059;-45
2022/08/19 07:10:13;;;;;;;61.15;32.03;;;;;;;18.30;100.00;101356.03;5013760;28;20034;-48
2022/08/19 07:12:39;;;;;;;65.90;33.20;;;;;;;18.36;100.00;101358.75;5014191;28;20208;-45
2022/08/19 07:15:08;;;;;;;56.80;31.67;;;;;;;18.38;100.00;101362.13;5011821;28;20365;-45
2022/08/19 07:17:38;;;;;;;61.03;32.67;;;;;;;18.38;100.00;101363.97;5014270;28;20537;-50
2022/08/19 07:20:04;;;;;;;58.55;33.42;;;;;;;18.44;100.00;101358.59;5013150;28;20426;-46
2022/08/19 07:22:30;;;;;;;64.65;32.13;;;;;;;18.52;100.00;101363.00;5015534;28;20033;-48
2022/08/19 07:24:56;;;;;;;62.50;32.58;;;;;;;18.61;100.00;101366.38;5017204;28;20484;-45
2022/08/19 07:27:21;;;;;;;58.25;32.25;;;;;;;18.69;100.00;101368.09;5017310;28;20040;-47
2022/08/19 07:29:46;;;;;;;57.97;31.73;;;;;;;18.75;100.00;101368.09;5016546;28;20033;-49
2022/08/19 07:32:12;;;;;;;51.10;31.67;;;;;;;18.80;100.00;101368.34;5016478;28;20035;-49
2022/08/19 07:34:37;;;;;;;58.33;30.73;;;;;;;18.86;100.00;101374.84;5017001;28;20424;-45
2022/08/19 07:37:04;;;;;;;49.10;27.63;;;;;;;18.90;100.00;101375.25;5017738;28;20029;-45
2022/08/19 07:39:32;;;;;;;45.25;25.05;;;;;;;18.84;100.00;101379.63;5016968;28;20025;-47
2022/08/19 07:42:00;;;;;;;43.97;23.75;;;;;;;18.79;100.00;101376.66;5016945;28;20619;-45
2022/08/19 07:44:26;;;;;;;41.97;23.88;;;;;;;18.90;100.00;101376.09;5015201;28;20075;-45
2022/08/19 07:46:56;;;;;;;42.35;23.63;;;;;;;19.07;100.00;101381.13;5016558;28;20091;-50
2022/08/19 07:49:21;;;;;;;45.95;25.17;;;;;;;19.20;100.00;101381.16;5014811;28;20021;-48
2022/08/19 07:52:01;;;;;;;47.63;25.30;;;;;;;19.25;100.00;101388.69;5017352;28;20037;-49
2022/08/19 07:54:27;;;;;;;50.83;27.95;;;;;;;19.29;100.00;101389.94;5015282;28;20120;-45
2022/08/19 07:56:52;;;;;;;50.70;27.52;;;;;;;19.24;100.00;101393.25;5016977;28;20404;-44
2022/08/19 07:59:20;;;;;;;51.75;28.92;;;;;;;19.17;100.00;101404.06;5016020;28;20242;-46
2022/08/19 08:01:46;;;;;;;55.40;28.17;;;;;;;19.10;100.00;101403.22;5016450;28;20119;-48
2022/08/19 08:09:41;;;;;;;55.83;28.67;;;;;;;19.13;100.00;101399.28;5016735;28;20032;-47
2022/08/19 08:12:10;;;;;;;52.47;27.85;;;;;;;19.18;100.00;101410.34;5016429;28;20103;-48
2022/08/19 08:14:48;;;;;;;57.25;29.42;;;;;;;19.11;100.00;101404.91;5014781;28;20099;-49
2022/08/19 08:17:19;;;;;;;47.95;26.77;;;;;;;19.06;100.00;101407.38;5015813;28;20155;-50
2022/08/19 08:19:44;;;;;;;47.60;27.58;;;;;;;19.04;100.00;101405.91;5016160;28;20010;-50
2022/08/19 08:23:22;;;;;;;46.95;26.50;;;;;;;19.08;100.00;101405.31;5015954;28;20029;-48
2022/08/19 08:25:20;;;;;;;48.97;26.38;;;;;;;19.26;100.00;101412.81;5016140;28;20029;-47
2022/08/19 08:27:46;;;;;;;45.83;25.15;;;;;;;19.30;100.00;101411.41;5016723;28;20763;-47
2022/08/19 08:30:19;;;;;;;44.17;25.27;;;;;;;19.34;100.00;101420.75;5014419;28;20029;-48
2022/08/19 08:32:44;;;;;;;45.70;25.98;;;;;;;19.42;100.00;101429.75;5015694;28;20493;-47
2022/08/19 08:35:12;;;;;;;43.90;23.67;;;;;;;19.41;100.00;101436.22;5014625;28;20036;-46
2022/08/19 08:37:38;;;;;;;40.90;23.30;;;;;;;19.40;100.00;101432.69;5016280;28;20039;-48
2022/08/19 08:40:09;;;;;;;42.65;24.60;;;;;;;19.45;100.00;101432.91;5015838;28;20112;-45
2022/08/19 08:42:38;;;;;;;41.78;24.33;;;;;;;19.47;100.00;101433.50;5016241;28;20060;-45
2022/08/19 08:45:15;;;;;;;43.67;23.58;;;;;;;19.46;100.00;101431.00;5013726;28;20025;-46
2022/08/19 08:47:46;;;;;;;42.45;23.83;;;;;;;19.43;100.00;101434.13;5014869;28;20031;-47
2022/08/19 08:50:53;;;;;;;42.63;23.75;;;;;;;19.48;100.00;101447.88;5015150;28;20021;-46
2022/08/19 08:53:20;;;;;;;46.22;25.17;;;;;;;19.42;100.00;101448.72;4952620;28;20034;-49
2022/08/19 08:55:46;;;;;;;45.65;23.90;;;;;;;19.60;100.00;101448.13;4954282;28;20038;-47
2022/08/19 08:58:22;;;;;;;43.35;24.73;;;;;;;19.84;100.00;101444.00;4983407;28;20034;-48
2022/08/19 09:00:49;;;;;;;42.50;25.75;;;;;;;19.98;100.00;101442.13;5013415;28;20500;-46
2022/08/19 09:03:20;;;;;;;42.67;24.40;;;;;;;20.08;100.00;101437.13;5015192;28;20044;-49
2022/08/19 09:06:27;;;;;;;38.83;23.55;;;;;;;20.20;100.00;101435.44;5014904;28;20345;-46
2022/08/19 09:09:04;;;;;;;39.95;24.58;;;;;;;20.20;100.00;101437.31;5007459;28;20052;-47
2022/08/19 09:11:55;;;;;;;42.65;25.05;;;;;;;20.25;100.00;101437.53;5014844;28;20027;-46
2022/08/19 09:14:34;;;;;;;44.95;26.65;;;;;;;20.24;100.00;101441.28;5014101;28;20029;-45
2022/08/19 09:16:59;;;;;;;41.83;25.17;;;;;;;20.21;100.00;101437.09;5013647;28;20408;-47
2022/08/19 09:19:25;;;;;;;41.20;26.35;;;;;;;20.21;100.00;101437.09;5013405;28;20025;-45
2022/08/19 09:21:50;;;;;;;44.88;25.52;;;;;;;20.22;100.00;101436.06;5015135;28;20043;-45
2022/08/19 09:24:15;;;;;;;38.63;23.92;;;;;;;20.19;100.00;101439.19;5014932;28;20030;-49
2022/08/19 09:26:43;;;;;;;46.50;24.75;;;;;;;20.18;100.00;101442.97;5014781;28;20415;-45
2022/08/19 09:29:09;;;;;;;40.97;25.40;;;;;;;20.11;100.00;101445.69;5013507;28;20039;-45
2022/08/19 09:31:35;;;;;;;40.67;25.80;;;;;;;20.11;100.00;101455.66;5014415;28;20140;-47
2022/08/19 09:34:03;;;;;;;43.35;25.70;;;;;;;20.05;100.00;101441.06;5015190;28;20459;-46
2022/08/19 09:36:30;;;;;;;42.15;26.88;;;;;;;20.05;100.00;101446.50;5012768;28;20059;-45
2022/08/19 09:38:56;;;;;;;44.67;28.63;;;;;;;20.00;100.00;101440.88;5015070;28;20029;-46
2022/08/19 09:41:23;;;;;;;44.17;27.10;;;;;;;19.87;100.00;101452.53;5014642;28;20026;-47
2022/08/19 09:43:51;;;;;;;43.03;26.38;;;;;;;19.88;100.00;101447.97;5013035;28;20025;-49
2022/08/19 09:46:19;;;;;;;44.00;26.80;;;;;;;19.93;100.00;101450.88;5029862;28;20388;-45
2022/08/19 09:48:48;;;;;;;42.25;26.15;;;;;;;20.16;100.00;101455.03;5023310;28;20044;-46
2022/08/19 09:51:15;;;;;;;50.58;27.55;;;;;;;20.29;100.00;101455.84;5013641;28;20021;-45
2022/08/19 09:53:41;;;;;;;42.65;27.30;;;;;;;20.37;100.00;101456.72;5014301;28;20101;-46
2022/08/19 09:56:07;;;;;;;44.92;27.90;;;;;;;20.41;100.00;101464.19;5014141;28;20052;-49
2022/08/19 09:58:34;;;;;;;46.33;27.75;;;;;;;20.49;100.00;101460.44;5012735;28;20056;-49
2022/08/19 10:01:01;;;;;;;47.72;27.85;;;;;;;20.66;100.00;101469.81;5013521;28;20029;-46
2022/08/19 10:03:29;;;;;;;51.17;26.27;;;;;;;20.84;100.00;101462.84;5014130;28;20220;-50
2022/08/19 10:05:57;;;;;;;37.08;23.52;;;;;;;21.02;100.00;101465.72;5014068;28;20048;-47
2022/08/19 10:08:28;;;;;;;33.80;22.48;;;;;;;21.10;100.00;101469.25;5014258;28;20030;-45
2022/08/19 10:10:54;;;;;;;36.28;22.55;;;;;;;21.18;100.00;101464.41;5014331;28;20105;-47
2022/08/19 10:13:24;;;;;;;39.25;21.95;;;;;;;21.20;100.00;101477.78;5013622;28;20017;-47
2022/08/19 10:15:51;;;;;;;36.00;21.93;;;;;;;21.09;100.00;101473.81;5013096;28;20044;-44
2022/08/19 10:18:18;;;;;;;38.60;22.13;;;;;;;21.02;100.00;101468.41;5014156;28;20110;-49
2022/08/19 10:20:45;;;;;;;38.17;21.48;;;;;;;20.99;100.00;101468.03;5013494;28;20120;-45
2022/08/19 10:23:10;;;;;;;42.22;21.98;;;;;;;20.92;100.00;101459.06;5014269;28;20033;-46
2022/08/19 10:25:37;;;;;;;40.13;24.02;;;;;;;20.87;100.00;101462.44;5014390;28;20399;-46
2022/08/19 10:28:02;;;;;;;37.92;22.13;;;;;;;20.82;100.00;101449.50;5014188;28;20064;-49
2022/08/19 10:30:28;;;;;;;38.58;22.80;;;;;;;20.86;100.00;101448.03;5012944;28;20029;-46
2022/08/19 10:32:54;;;;;;;40.47;23.30;;;;;;;20.96;100.00;101452.16;5014599;28;20029;-48
2022/08/19 10:35:19;;;;;;;40.70;24.35;;;;;;;21.00;100.00;101450.69;5013389;28;20090;-47
2022/08/19 10:37:44;;;;;;;41.88;23.98;;;;;;;21.02;100.00;101460.28;5014410;28;20025;-48
2022/08/19 10:40:11;;;;;;;39.60;23.00;;;;;;;21.01;100.00;101449.63;5013349;28;20237;-49
2022/08/19 10:42:37;;;;;;;40.95;24.95;;;;;;;21.07;100.00;101447.94;5014136;28;20037;-47
2022/08/19 10:45:05;;;;;;;40.97;24.77;;;;;;;21.13;100.00;101456.06;5011394;28;20137;-47
2022/08/19 10:47:31;;;;;;;40.10;25.23;;;;;;;21.37;100.00;101449.03;5014529;28;20405;-49
2022/08/19 10:52:42;;;;;;;42.25;25.80;;;;;;;21.72;100.00;101445.88;5013880;28;20099;-46
2022/08/19 10:57:52;;;;;;;43.92;25.25;;;;;;;21.94;100.00;101437.34;5018135;28;20048;-45
2022/08/19 11:00:19;;;;;;;39.13;24.42;;;;;;;22.06;100.00;101432.03;5016912;28;20481;-48
2022/08/19 11:02:45;;;;;;;39.95;23.88;;;;;;;22.13;100.00;101443.66;5016584;28;20450;-50
2022/08/19 11:05:11;;;;;;;42.92;25.27;;;;;;;22.13;100.00;101438.22;5016747;28;20485;-47
2022/08/19 11:07:38;;;;;;;35.08;24.27;;;;;;;22.08;100.00;101430.75;5017889;28;20044;-48
2022/08/19 11:10:05;;;;;;;41.72;24.23;;;;;;;22.25;100.00;101433.75;5036005;28;20021;-50
2022/08/19 11:12:30;;;;;;;38.75;23.90;;;;;;;22.26;100.00;101437.28;5025067;28;20154;-47
2022/08/19 11:14:56;;;;;;;34.05;23.70;;;;;;;22.10;100.00;101436.81;5016510;28;20197;-44
2022/08/19 11:17:23;;;;;;;37.38;23.48;;;;;;;22.12;100.00;101431.97;5017432;28;20407;-48
2022/08/19 11:19:49;;;;;;;35.60;23.73;;;;;;;22.42;100.00;101439.47;5016089;28;20037;-50
2022/08/19 11:22:15;;;;;;;34.50;22.17;;;;;;;22.74;100.00;101425.66;5017535;28;20033;-47
2022/08/19 11:24:40;;;;;;;41.22;25.05;;;;;;;22.95;100.00;101438.00;5017870;28;20361;-47